Terminal Aerodrome Forecast
Issued by NWS

Home | Current Version | Previous Version | Text Only | Print | Product List | Glossary On
Versions: 1 2 3 4 5 6 7 8 9 10 11 12 13 14 15 16 17 18 19 20 21
000
FTUS43 KIND 220520
TAFBMG
TAF
KBMG 220520Z 2206/2306 00000KT 5SM BR OVC020
     FM220900 00000KT 2SM BR OVC015
     FM221100 00000KT 2SM BR OVC008
     FM221230 00000KT 3/4SM BR OVC008
     FM221500 20004KT 2SM BR BKN008
     FM221600 20005KT P6SM BKN015
     FM221700 20005KT P6SM BKN020
     FM222000 20007KT P6SM BKN035
      AMD LTD TO CLD VIS AND WIND TIL 221400=

USA.gov is the U.S. government's official web portal to all federal, state and local government web resources and services.